createdAt,value
2017-03-14T00:00:36.458Z,1022.15
2017-03-14T00:01:36.403Z,1022.18
2017-03-14T00:02:36.333Z,1022.18
2017-03-14T00:03:36.270Z,1022.16
2017-03-14T00:04:36.208Z,1022.16
2017-03-14T00:05:36.144Z,1022.12
2017-03-14T00:06:36.082Z,1022.17
2017-03-14T00:07:36.019Z,1022.13
2017-03-14T00:08:35.955Z,1022.19
2017-03-14T00:09:35.892Z,1022.19
2017-03-14T00:10:35.830Z,1022.22
2017-03-14T00:11:35.766Z,1022.2
2017-03-14T00:12:35.704Z,1022.18
2017-03-14T00:13:35.642Z,1022.19
2017-03-14T00:14:35.578Z,1022.19
2017-03-14T00:15:35.515Z,1022.15
2017-03-14T00:16:35.451Z,1022.17
2017-03-14T00:17:35.390Z,1022.19
2017-03-14T00:18:35.327Z,1022.17
2017-03-14T00:19:35.262Z,1022.17
2017-03-14T00:20:35.201Z,1022.16
2017-03-14T00:21:35.138Z,1022.17
2017-03-14T00:22:35.074Z,1022.2
2017-03-14T00:23:35.011Z,1022.18
2017-03-14T00:24:34.950Z,1022.18
2017-03-14T00:25:34.887Z,1022.18
2017-03-14T00:26:34.823Z,1022.17
2017-03-14T00:27:34.761Z,1022.16
2017-03-14T00:28:34.698Z,1022.17
2017-03-14T00:29:34.635Z,1022.14
2017-03-14T00:30:34.571Z,1022.15
2017-03-14T00:31:34.510Z,1022.15
2017-03-14T00:32:34.446Z,1022.19
2017-03-14T00:33:34.383Z,1022.22
2017-03-14T00:34:34.321Z,1022.22
2017-03-14T00:35:34.258Z,1022.24
2017-03-14T00:36:34.195Z,1022.25
2017-03-14T00:37:34.131Z,1022.25
2017-03-14T00:38:34.069Z,1022.24
2017-03-14T00:39:34.010Z,1022.2
2017-03-14T00:40:33.943Z,1022.19
2017-03-14T00:41:33.878Z,1022.23
2017-03-14T00:42:33.817Z,1022.22
2017-03-14T00:43:33.754Z,1022.15
2017-03-14T00:44:33.692Z,1022.07
2017-03-14T00:45:33.628Z,1022.09
2017-03-14T00:46:33.565Z,1022.06
2017-03-14T00:47:33.502Z,1022.05
2017-03-14T00:48:33.438Z,1022.03
2017-03-14T00:49:33.376Z,1022.07
2017-03-14T00:50:33.313Z,1022.04
2017-03-14T00:51:33.252Z,1022.05
2017-03-14T00:52:33.187Z,1022.06
2017-03-14T00:53:33.124Z,1021.98
2017-03-14T00:54:33.061Z,1021.96
2017-03-14T00:55:32.998Z,1021.98
2017-03-14T00:56:32.935Z,1021.95
2017-03-14T00:57:32.871Z,1021.95
2017-03-14T00:58:32.810Z,1021.93
2017-03-14T00:59:32.745Z,1021.89
2017-03-14T01:02:50.465Z,1021.93
2017-03-14T01:03:50.399Z,1021.9
2017-03-14T01:04:50.336Z,1021.92
2017-03-14T01:05:50.273Z,1021.88
2017-03-14T01:06:50.210Z,1021.88
2017-03-14T01:07:50.147Z,1021.89
2017-03-14T01:08:50.083Z,1021.86
2017-03-14T01:09:50.021Z,1021.9
2017-03-14T01:10:49.957Z,1021.96
2017-03-14T01:11:49.894Z,1022
2017-03-14T01:12:49.831Z,1021.99
2017-03-14T01:13:49.768Z,1021.96
2017-03-14T01:14:49.706Z,1022.04
2017-03-14T01:15:49.641Z,1022.03
2017-03-14T01:16:49.581Z,1022.05
2017-03-14T01:17:49.515Z,1022.06
2017-03-14T01:18:49.452Z,1022.09
2017-03-14T01:19:49.389Z,1022.09
2017-03-14T01:20:49.327Z,1022.07
2017-03-14T01:21:49.264Z,1022.03
2017-03-14T01:22:49.200Z,1022.01
2017-03-14T01:23:49.137Z,1022.04
2017-03-14T01:24:49.076Z,1022.02
2017-03-14T01:25:49.011Z,1022.04
2017-03-14T01:26:48.948Z,1022.04
2017-03-14T01:27:48.887Z,1022.03
2017-03-14T01:28:48.822Z,1022.02
2017-03-14T01:29:48.758Z,1022.01
2017-03-14T01:30:48.695Z,1022.02
2017-03-14T01:31:48.632Z,1022.01
2017-03-14T01:32:48.570Z,1022.04
2017-03-14T01:33:48.507Z,1022
2017-03-14T01:34:48.444Z,1022.02
2017-03-14T01:35:48.380Z,1022.03
2017-03-14T01:36:48.318Z,1022.04
2017-03-14T01:37:48.254Z,1022.02
2017-03-14T01:38:48.191Z,1022.02
2017-03-14T01:39:48.128Z,1022.02
2017-03-14T01:40:48.068Z,1022.07
2017-03-14T01:41:48.002Z,1022.07
2017-03-14T01:42:47.963Z,1022.05
2017-03-14T01:43:47.875Z,1022.08
2017-03-14T01:44:47.812Z,1022.08
2017-03-14T01:45:47.750Z,1022.07
2017-03-14T01:46:47.687Z,1022.05
2017-03-14T01:47:47.623Z,1022.02
2017-03-14T01:48:47.561Z,1022
2017-03-14T01:49:47.498Z,1022
2017-03-14T01:50:47.435Z,1021.99
2017-03-14T01:51:47.372Z,1022.02
2017-03-14T01:52:47.308Z,1022.1
2017-03-14T01:53:47.245Z,1022.08
2017-03-14T01:54:47.181Z,1022.13
2017-03-14T01:55:47.119Z,1022.08
2017-03-14T01:56:47.056Z,1022.09
2017-03-14T01:57:46.994Z,1022.11
2017-03-14T01:58:46.929Z,1022.1
2017-03-14T01:59:46.867Z,1022.08
2017-03-14T02:00:46.804Z,1022.1
2017-03-14T02:01:46.742Z,1022.08
2017-03-14T02:02:46.678Z,1022.05
2017-03-14T02:03:46.615Z,1022.03
2017-03-14T02:04:46.551Z,1021.99
2017-03-14T02:05:46.489Z,1022.07
2017-03-14T02:06:46.425Z,1022.1
2017-03-14T02:07:46.363Z,1022.07
2017-03-14T02:08:46.303Z,1022.06
2017-03-14T02:09:46.236Z,1022.13
2017-03-14T02:10:46.173Z,1022.15
2017-03-14T02:11:46.111Z,1022.06
2017-03-14T02:12:46.048Z,1022.03
2017-03-14T02:13:45.983Z,1022.05
2017-03-14T02:14:45.921Z,1022.09
2017-03-14T02:15:45.859Z,1022.08
2017-03-14T02:16:45.795Z,1022.07
2017-03-14T02:17:45.732Z,1022.04
2017-03-14T02:18:45.670Z,1022.08
2017-03-14T02:19:45.606Z,1022.04
2017-03-14T02:20:45.549Z,1022.08
2017-03-14T02:21:45.481Z,1022.08
2017-03-14T02:22:45.417Z,1022.07
2017-03-14T02:23:45.354Z,1022.1
2017-03-14T02:24:45.299Z,1022.11
2017-03-14T02:25:45.251Z,1022.09
2017-03-14T02:26:45.165Z,1022.13
2017-03-14T02:27:45.107Z,1022.13
2017-03-14T02:28:45.039Z,1022.14
2017-03-14T02:29:44.975Z,1022.13
2017-03-14T02:30:44.920Z,1022.17
2017-03-14T02:31:44.849Z,1022.16
2017-03-14T02:32:44.786Z,1022.17
2017-03-14T02:33:44.723Z,1022.17
2017-03-14T02:34:44.661Z,1022.15
2017-03-14T02:35:44.597Z,1022.16
2017-03-14T02:36:44.534Z,1022.2
2017-03-14T02:37:44.471Z,1022.18
2017-03-14T02:38:44.410Z,1022.2
2017-03-14T02:39:44.344Z,1022.2
2017-03-14T02:40:44.282Z,1022.23
2017-03-14T02:41:44.219Z,1022.26
2017-03-14T02:42:44.156Z,1022.28
2017-03-14T02:43:44.093Z,1022.31
2017-03-14T02:44:44.030Z,1022.28
2017-03-14T02:45:43.967Z,1022.28
2017-03-14T02:46:43.903Z,1022.32
2017-03-14T02:47:43.841Z,1022.3
2017-03-14T02:48:43.778Z,1022.33
2017-03-14T02:49:43.714Z,1022.34
2017-03-14T02:50:43.651Z,1022.36
2017-03-14T02:51:43.588Z,1022.4
2017-03-14T02:52:43.526Z,1022.31
2017-03-14T02:53:43.462Z,1022.32
2017-03-14T02:54:43.398Z,1022.27
2017-03-14T02:55:43.337Z,1022.3
2017-03-14T02:56:43.273Z,1022.31
2017-03-14T02:57:43.210Z,1022.36
2017-03-14T02:58:43.147Z,1022.38
2017-03-14T02:59:43.084Z,1022.36
2017-03-14T03:00:43.020Z,1022.37
2017-03-14T03:01:42.958Z,1022.37
2017-03-14T03:02:42.894Z,1022.41
2017-03-14T03:03:42.831Z,1022.34
2017-03-14T03:04:42.773Z,1022.37
2017-03-14T03:05:42.705Z,1022.4
2017-03-14T03:06:42.651Z,1022.43
2017-03-14T03:07:42.579Z,1022.42
2017-03-14T03:08:42.517Z,1022.42
2017-03-14T03:09:42.453Z,1022.39
2017-03-14T03:10:42.390Z,1022.4
2017-03-14T03:11:42.326Z,1022.38
2017-03-14T03:12:42.263Z,1022.38
2017-03-14T03:13:42.200Z,1022.36
2017-03-14T03:14:42.138Z,1022.35
2017-03-14T03:15:42.076Z,1022.39
2017-03-14T03:16:42.011Z,1022.37
2017-03-14T03:17:41.948Z,1022.37
2017-03-14T03:18:41.886Z,1022.32
2017-03-14T03:19:41.821Z,1022.32
2017-03-14T03:20:41.758Z,1022.32
2017-03-14T03:21:41.695Z,1022.32
2017-03-14T03:22:41.633Z,1022.33
2017-03-14T03:23:41.569Z,1022.33
2017-03-14T03:24:41.512Z,1022.32
2017-03-14T03:25:41.443Z,1022.29
2017-03-14T03:26:41.380Z,1022.26
2017-03-14T03:27:41.317Z,1022.24
2017-03-14T03:28:41.254Z,1022.28
2017-03-14T03:29:41.191Z,1022.23
2017-03-14T03:30:41.128Z,1022.26
2017-03-14T03:31:41.064Z,1022.26
2017-03-14T03:32:41.001Z,1022.26
2017-03-14T03:33:40.936Z,1022.22
2017-03-14T03:34:40.875Z,1022.22
2017-03-14T03:35:40.812Z,1022.23
2017-03-14T03:36:40.749Z,1022.22
2017-03-14T03:37:40.685Z,1022.23
2017-03-14T03:38:40.622Z,1022.22
2017-03-14T03:39:40.560Z,1022.21
2017-03-14T03:40:40.497Z,1022.21
2017-03-14T03:41:40.441Z,1022.25
2017-03-14T03:42:40.371Z,1022.25
2017-03-14T03:43:40.308Z,1022.26
2017-03-14T03:44:40.242Z,1022.27
2017-03-14T03:45:40.180Z,1022.26
2017-03-14T03:46:40.117Z,1022.28
2017-03-14T03:47:40.055Z,1022.24
2017-03-14T03:48:40.015Z,1022.27
2017-03-14T03:49:39.930Z,1022.21
2017-03-14T03:50:39.865Z,1022.24
2017-03-14T03:51:39.804Z,1022.21
2017-03-14T03:52:39.740Z,1022.26
2017-03-14T03:53:39.677Z,1022.29
2017-03-14T03:54:39.614Z,1022.29
2017-03-14T03:55:39.552Z,1022.27
2017-03-14T03:56:39.487Z,1022.25
2017-03-14T03:57:39.426Z,1022.28
2017-03-14T03:58:39.362Z,1022.29
2017-03-14T03:59:39.299Z,1022.3
2017-03-14T04:00:39.234Z,1022.3
2017-03-14T04:01:39.173Z,1022.3
2017-03-14T04:02:39.108Z,1022.32
2017-03-14T04:03:39.046Z,1022.33
2017-03-14T04:04:38.983Z,1022.32
2017-03-14T04:05:38.920Z,1022.3
2017-03-14T04:06:38.856Z,1022.34
2017-03-14T04:07:38.793Z,1022.34
2017-03-14T04:08:38.731Z,1022.31
2017-03-14T04:09:38.667Z,1022.35
2017-03-14T04:10:38.603Z,1022.33
2017-03-14T04:11:38.559Z,1022.36
2017-03-14T04:12:38.482Z,1022.38
2017-03-14T04:13:38.414Z,1022.39
2017-03-14T04:14:38.351Z,1022.37
2017-03-14T04:15:38.292Z,1022.38
2017-03-14T04:16:38.226Z,1022.34
2017-03-14T04:17:38.162Z,1022.32
2017-03-14T04:18:38.098Z,1022.34
2017-03-14T04:19:38.037Z,1022.35
2017-03-14T04:20:37.973Z,1022.36
2017-03-14T04:21:37.909Z,1022.38
2017-03-14T04:22:37.845Z,1022.44
2017-03-14T04:23:37.783Z,1022.48
2017-03-14T04:24:37.719Z,1022.47
2017-03-14T04:25:37.656Z,1022.5
2017-03-14T04:26:37.593Z,1022.49
2017-03-14T04:27:37.530Z,1022.49
2017-03-14T04:28:37.466Z,1022.51
2017-03-14T04:29:37.403Z,1022.49
2017-03-14T04:30:37.341Z,1022.49
2017-03-14T04:31:37.278Z,1022.52
2017-03-14T04:32:37.213Z,1022.49
2017-03-14T04:33:37.150Z,1022.54
2017-03-14T04:34:37.087Z,1022.52
2017-03-14T04:35:37.023Z,1022.5
2017-03-14T04:36:36.959Z,1022.57
2017-03-14T04:37:36.897Z,1022.57
2017-03-14T04:38:36.836Z,1022.57
2017-03-14T04:39:36.770Z,1022.55
2017-03-14T04:40:36.707Z,1022.56
2017-03-14T04:41:36.643Z,1022.55
2017-03-14T04:42:36.581Z,1022.58
2017-03-14T04:43:36.517Z,1022.59
2017-03-14T04:44:36.454Z,1022.6
2017-03-14T04:45:36.391Z,1022.63
2017-03-14T04:46:36.327Z,1022.68
2017-03-14T04:47:36.265Z,1022.7
2017-03-14T04:48:36.201Z,1022.72
2017-03-14T04:49:36.138Z,1022.72
2017-03-14T04:50:36.074Z,1022.73
2017-03-14T04:51:36.012Z,1022.76
2017-03-14T04:52:35.948Z,1022.79
2017-03-14T04:53:35.890Z,1022.8
2017-03-14T04:54:35.822Z,1022.79
2017-03-14T04:55:35.758Z,1022.81
2017-03-14T04:56:35.695Z,1022.83
2017-03-14T04:57:35.631Z,1022.83
2017-03-14T04:58:35.568Z,1022.85
2017-03-14T04:59:35.505Z,1022.84
2017-03-14T05:00:35.441Z,1022.88
2017-03-14T05:01:35.382Z,1022.93
2017-03-14T05:02:35.315Z,1023.47
2017-03-14T05:03:35.256Z,1023.4
2017-03-14T05:04:35.187Z,1023.31
2017-03-14T05:05:35.124Z,1023.29
2017-03-14T05:06:35.062Z,1023.36
2017-03-14T05:07:34.999Z,1023.31
2017-03-14T05:08:34.935Z,1023.34
2017-03-14T05:09:34.872Z,1023.3
2017-03-14T05:10:34.811Z,1023.35
2017-03-14T05:11:34.746Z,1023.38
2017-03-14T05:12:34.682Z,1023.35
2017-03-14T05:13:34.618Z,1023.35
2017-03-14T05:14:34.555Z,1023.4
2017-03-14T05:15:34.496Z,1023.39
2017-03-14T05:16:34.428Z,1023.39
2017-03-14T05:17:34.367Z,1023.42
2017-03-14T05:18:34.302Z,1023.44
2017-03-14T05:19:34.239Z,1023.4
2017-03-14T05:20:34.175Z,1023.44
2017-03-14T05:21:34.112Z,1023.46
2017-03-14T05:22:34.048Z,1023.47
2017-03-14T05:23:33.983Z,1023.49
2017-03-14T05:24:33.921Z,1023.48
2017-03-14T05:25:33.858Z,1023.43
2017-03-14T05:26:33.795Z,1023.46
2017-03-14T05:27:33.732Z,1023.48
2017-03-14T05:28:33.669Z,1023.49
2017-03-14T05:29:33.606Z,1023.53
2017-03-14T05:30:33.547Z,1023.52
2017-03-14T05:31:33.479Z,1023.53
2017-03-14T05:32:33.415Z,1023.52
2017-03-14T05:33:33.357Z,1023.54
2017-03-14T05:34:33.288Z,1023.58
2017-03-14T05:35:33.223Z,1023.59
2017-03-14T05:36:33.164Z,1023.58
2017-03-14T05:37:33.097Z,1023.59
2017-03-14T05:38:33.033Z,1023.63
2017-03-14T05:39:32.971Z,1023.62
2017-03-14T05:40:32.909Z,1023.62
2017-03-14T05:41:32.843Z,1023.65
2017-03-14T05:42:32.781Z,1023.65
2017-03-14T05:43:32.718Z,1023.64
2017-03-14T05:44:32.655Z,1023.6
2017-03-14T05:45:32.592Z,1023.65
2017-03-14T05:46:32.527Z,1023.66
2017-03-14T05:47:32.464Z,1023.72
2017-03-14T05:48:32.405Z,1023.78
2017-03-14T05:49:32.337Z,1023.77
2017-03-14T05:50:32.274Z,1023.76
2017-03-14T05:51:32.211Z,1023.82
2017-03-14T05:52:32.145Z,1023.82
2017-03-14T05:53:32.150Z,1023.87
2017-03-14T05:54:32.021Z,1023.83
2017-03-14T05:55:31.957Z,1023.86
2017-03-14T05:56:31.915Z,1023.88
2017-03-14T05:57:31.831Z,1023.94
2017-03-14T05:58:31.807Z,1023.95
2017-03-14T05:59:31.701Z,1023.97
2017-03-14T06:00:31.639Z,1023.99
2017-03-14T06:01:31.576Z,1023.99
2017-03-14T06:02:31.512Z,1024.01
2017-03-14T06:03:31.456Z,1023.98
2017-03-14T06:04:31.385Z,1023.98
2017-03-14T06:05:31.324Z,1023.99
2017-03-14T06:06:31.259Z,1024.03
2017-03-14T06:07:31.195Z,1024.05
2017-03-14T06:08:31.131Z,1024.07
2017-03-14T06:09:31.068Z,1024.08
2017-03-14T06:10:31.004Z,1024.09
2017-03-14T06:11:30.941Z,1024.06
2017-03-14T06:12:30.878Z,1024.1
2017-03-14T06:13:30.814Z,1024.05
2017-03-14T06:14:30.750Z,1024.06
2017-03-14T06:15:30.687Z,1024.03
2017-03-14T06:16:30.624Z,1024.06
2017-03-14T06:17:30.560Z,1024.03
2017-03-14T06:18:30.497Z,1024.01
2017-03-14T06:19:30.433Z,1024
2017-03-14T06:20:30.370Z,1024.01
2017-03-14T06:21:30.314Z,1023.98
2017-03-14T06:22:30.249Z,1023.99
2017-03-14T06:23:30.180Z,1024
2017-03-14T06:24:30.116Z,1024.07
2017-03-14T06:25:30.053Z,1024.06
2017-03-14T06:26:29.989Z,1023.83
2017-03-14T06:27:29.927Z,1023.84
2017-03-14T06:28:29.863Z,1023.83
2017-03-14T06:29:29.823Z,1023.85
2017-03-14T06:30:29.736Z,1023.89
2017-03-14T06:31:29.673Z,1023.85
2017-03-14T06:32:29.610Z,1023.88
2017-03-14T06:33:29.546Z,1023.86
2017-03-14T06:34:29.482Z,1023.86
2017-03-14T06:35:29.419Z,1023.91
2017-03-14T06:36:29.355Z,1023.93
2017-03-14T06:37:29.292Z,1023.95
2017-03-14T06:38:29.229Z,1023.91
2017-03-14T06:39:29.165Z,1023.95
2017-03-14T06:40:29.102Z,1023.97
2017-03-14T06:41:29.040Z,1024.03
2017-03-14T06:42:28.976Z,1023.96
2017-03-14T06:43:28.912Z,1023.99
2017-03-14T06:44:28.852Z,1023.91
2017-03-14T06:45:28.786Z,1023.92
2017-03-14T06:46:28.723Z,1023.9
2017-03-14T06:47:28.659Z,1023.86
2017-03-14T06:48:28.597Z,1023.89
2017-03-14T06:49:28.533Z,1023.88
2017-03-14T06:50:28.470Z,1023.92
2017-03-14T06:51:28.406Z,1023.91
2017-03-14T06:52:28.343Z,1023.89
2017-03-14T06:53:28.280Z,1023.87
2017-03-14T06:54:28.218Z,1023.89
2017-03-14T06:55:28.154Z,1023.89
2017-03-14T06:56:28.091Z,1023.93
2017-03-14T06:57:28.029Z,1023.94
2017-03-14T06:58:27.967Z,1023.92
2017-03-14T06:59:27.900Z,1023.9
2017-03-14T07:00:27.838Z,1023.87
2017-03-14T07:01:27.774Z,1023.88
2017-03-14T07:02:27.713Z,1023.89
2017-03-14T07:03:27.650Z,1023.94
2017-03-14T07:04:27.587Z,1023.88
2017-03-14T07:05:27.523Z,1023.83
2017-03-14T07:06:27.460Z,1023.79
2017-03-14T07:07:27.397Z,1023.77
2017-03-14T07:08:27.343Z,1023.74
2017-03-14T07:09:27.280Z,1023.7
2017-03-14T07:10:27.210Z,1023.74
2017-03-14T07:11:27.145Z,1023.67
2017-03-14T07:12:27.081Z,1023.66
2017-03-14T07:13:27.023Z,1023.65
2017-03-14T07:14:26.956Z,1023.61
2017-03-14T07:15:26.894Z,1023.58
2017-03-14T07:16:26.828Z,1023.6
2017-03-14T07:17:26.765Z,1023.63
2017-03-14T07:18:26.704Z,1023.63
2017-03-14T07:19:26.641Z,1023.65
2017-03-14T07:20:26.578Z,1023.7
2017-03-14T07:21:26.514Z,1023.76
2017-03-14T07:22:26.452Z,1023.72
2017-03-14T07:23:26.388Z,1023.71
2017-03-14T07:24:26.327Z,1023.73
2017-03-14T07:25:26.263Z,1023.79
2017-03-14T07:26:26.203Z,1023.78
2017-03-14T07:27:26.136Z,1023.84
2017-03-14T07:28:26.074Z,1023.83
2017-03-14T07:29:26.011Z,1023.81
2017-03-14T07:30:25.952Z,1023.78
2017-03-14T07:31:25.885Z,1023.76
2017-03-14T07:32:25.824Z,1023.83
2017-03-14T07:33:25.759Z,1023.86
2017-03-14T07:34:25.696Z,1023.78
2017-03-14T07:35:25.634Z,1023.75
2017-03-14T07:36:25.572Z,1023.75
2017-03-14T07:37:25.508Z,1023.7
2017-03-14T07:38:25.444Z,1023.73
2017-03-14T07:39:25.381Z,1023.67
2017-03-14T07:40:25.319Z,1023.63
2017-03-14T07:41:25.255Z,1023.58
2017-03-14T07:42:25.193Z,1023.62
2017-03-14T07:43:25.131Z,1023.68
2017-03-14T07:44:25.069Z,1023.75
2017-03-14T07:45:25.017Z,1023.79
2017-03-14T07:46:24.940Z,1023.79
2017-03-14T07:47:24.878Z,1023.79
2017-03-14T07:48:24.815Z,1023.85
2017-03-14T07:49:24.757Z,1023.92
2017-03-14T07:50:24.690Z,1023.96
2017-03-14T07:51:24.700Z,1023.97
2017-03-14T07:52:24.564Z,1023.98
2017-03-14T07:53:24.502Z,1024.01
2017-03-14T07:54:24.438Z,1024.07
2017-03-14T07:55:24.375Z,1024.11
2017-03-14T07:56:24.314Z,1024.14
2017-03-14T07:57:24.249Z,1024.15
2017-03-14T07:58:24.186Z,1024.09
2017-03-14T07:59:24.125Z,1024.08
2017-03-14T08:00:24.060Z,1024.05
2017-03-14T08:01:23.997Z,1024.1
2017-03-14T08:02:23.941Z,1024.21
2017-03-14T08:03:23.873Z,1024.23
2017-03-14T08:04:23.809Z,1024.22
2017-03-14T08:05:23.746Z,1024.25
2017-03-14T08:06:23.683Z,1024.28
2017-03-14T08:07:23.620Z,1024.3
2017-03-14T08:08:23.557Z,1024.31
2017-03-14T08:09:23.494Z,1024.31
2017-03-14T08:10:23.431Z,1024.39
2017-03-14T08:11:23.367Z,1024.45
2017-03-14T08:12:23.306Z,1024.47
2017-03-14T08:13:23.243Z,1024.44
2017-03-14T08:14:23.179Z,1024.48
2017-03-14T08:15:23.266Z,1024.44
2017-03-14T08:16:23.053Z,1024.39
2017-03-14T08:17:23.057Z,1024.41
2017-03-14T08:18:22.928Z,1024.44
2017-03-14T08:19:22.931Z,1024.4
2017-03-14T08:20:22.870Z,1024.38
2017-03-14T08:21:22.784Z,1024.35
2017-03-14T08:22:22.718Z,1024.34
2017-03-14T08:23:22.615Z,1024.37
2017-03-14T08:24:22.550Z,1024.4
2017-03-14T08:25:22.488Z,1024.39
2017-03-14T08:26:22.432Z,1024.48
2017-03-14T08:27:22.366Z,1024.49
2017-03-14T08:28:22.298Z,1024.55
2017-03-14T08:29:22.243Z,1024.61
2017-03-14T08:30:22.172Z,1024.68
2017-03-14T08:31:22.111Z,1024.67
2017-03-14T08:32:22.047Z,1024.65
2017-03-14T08:33:21.986Z,1024.65
2017-03-14T08:34:21.922Z,1024.69
2017-03-14T08:35:21.858Z,1024.66
2017-03-14T08:36:21.795Z,1024.65
2017-03-14T08:37:21.733Z,1024.66
2017-03-14T08:38:21.671Z,1024.63
2017-03-14T08:39:21.607Z,1024.66
2017-03-14T08:40:21.993Z,1024.65
2017-03-14T08:41:21.481Z,1024.57
2017-03-14T08:42:21.425Z,1024.67
2017-03-14T08:43:21.355Z,1024.64
2017-03-14T08:44:21.291Z,1024.65
2017-03-14T08:45:21.228Z,1024.67
2017-03-14T08:46:21.166Z,1024.7
2017-03-14T08:47:21.102Z,1024.65
2017-03-14T08:48:21.039Z,1024.69
2017-03-14T08:49:20.976Z,1024.58
2017-03-14T08:50:20.913Z,1024.62
2017-03-14T08:51:20.849Z,1024.57
2017-03-14T08:52:20.786Z,1024.63
2017-03-14T08:53:20.732Z,1024.58
2017-03-14T08:54:20.664Z,1024.58
2017-03-14T08:55:20.597Z,1024.64
2017-03-14T08:56:20.536Z,1024.67
2017-03-14T08:57:20.472Z,1024.7
2017-03-14T08:58:20.409Z,1024.65
2017-03-14T08:59:20.346Z,1024.68
2017-03-14T09:00:20.283Z,1024.66
2017-03-14T09:01:20.222Z,1024.62
2017-03-14T09:02:20.157Z,1024.6
2017-03-14T09:03:20.095Z,1024.62
2017-03-14T09:04:20.035Z,1024.53
2017-03-14T09:05:19.970Z,1024.57
2017-03-14T09:06:19.907Z,1024.57
2017-03-14T09:07:19.844Z,1024.53
2017-03-14T09:08:19.782Z,1024.55
2017-03-14T09:09:19.733Z,1024.49
2017-03-14T09:10:19.656Z,1024.5
2017-03-14T09:11:19.594Z,1024.42
2017-03-14T09:12:19.531Z,1024.4
2017-03-14T09:13:19.469Z,1024.38
2017-03-14T09:14:19.405Z,1024.38
2017-03-14T09:15:19.344Z,1024.34
2017-03-14T09:16:19.282Z,1024.38
2017-03-14T09:17:19.218Z,1024.38
2017-03-14T09:18:19.158Z,1024.38
2017-03-14T09:19:19.096Z,1024.3
2017-03-14T09:20:19.031Z,1024.26
2017-03-14T09:21:18.970Z,1024.2
2017-03-14T09:22:18.907Z,1024.18
2017-03-14T09:23:18.845Z,1024.18
2017-03-14T09:24:18.781Z,1024.19
2017-03-14T09:25:18.720Z,1024.23
2017-03-14T09:26:18.657Z,1024.25
2017-03-14T09:27:18.595Z,1024.25
2017-03-14T09:28:18.531Z,1024.25
2017-03-14T09:29:18.469Z,1024.23
2017-03-14T09:30:18.417Z,1024.22
2017-03-14T09:31:18.345Z,1024.27
2017-03-14T09:32:18.289Z,1024.25
2017-03-14T09:33:18.224Z,1024.24
2017-03-14T09:34:18.159Z,1024.26
2017-03-14T09:35:18.098Z,1024.32
2017-03-14T09:36:18.036Z,1024.36
2017-03-14T09:37:17.994Z,1024.38
2017-03-14T09:38:17.910Z,1024.35
2017-03-14T09:39:17.848Z,1024.4
2017-03-14T09:40:17.787Z,1024.37
2017-03-14T09:41:17.726Z,1024.39
2017-03-14T09:42:17.662Z,1024.41
2017-03-14T09:43:17.612Z,1024.36
2017-03-14T09:44:17.538Z,1024.34
2017-03-14T09:45:17.477Z,1024.34
2017-03-14T09:46:17.417Z,1024.32
2017-03-14T09:47:17.352Z,1024.29
2017-03-14T09:48:17.291Z,1024.29
2017-03-14T09:49:17.230Z,1024.29
2017-03-14T09:50:17.165Z,1024.3
2017-03-14T09:51:17.105Z,1024.36
2017-03-14T09:52:17.065Z,1024.39
2017-03-14T09:53:16.980Z,1024.41
2017-03-14T09:54:16.921Z,1024.41
2017-03-14T09:55:16.858Z,1024.37
2017-03-14T09:56:16.796Z,1024.37
2017-03-14T09:57:16.733Z,1024.37
2017-03-14T09:58:16.671Z,1024.43
2017-03-14T09:59:16.610Z,1024.42
2017-03-14T10:00:16.549Z,1024.4
2017-03-14T10:01:16.486Z,1024.37
2017-03-14T10:02:16.425Z,1024.34
2017-03-14T10:03:16.364Z,1024.31
2017-03-14T10:04:16.301Z,1024.3
2017-03-14T10:05:16.239Z,1024.29
2017-03-14T10:06:16.178Z,1024.23
2017-03-14T10:07:16.116Z,1024.28
2017-03-14T10:08:16.055Z,1024.34
2017-03-14T10:09:15.994Z,1024.38
2017-03-14T10:10:15.936Z,1024.4
2017-03-14T10:11:15.870Z,1024.34
2017-03-14T10:12:15.808Z,1024.36
2017-03-14T10:13:15.747Z,1024.27
2017-03-14T10:14:15.685Z,1024.31
2017-03-14T10:15:15.623Z,1024.3
2017-03-14T10:16:15.561Z,1024.27
2017-03-14T10:17:15.500Z,1024.26
2017-03-14T10:18:15.439Z,1024.28
2017-03-14T10:19:15.376Z,1024.32
2017-03-14T10:20:15.315Z,1024.3
2017-03-14T10:21:15.253Z,1024.36
2017-03-14T10:22:15.190Z,1024.44
2017-03-14T10:23:15.129Z,1024.42
2017-03-14T10:24:15.066Z,1024.39
2017-03-14T10:25:15.005Z,1024.49
2017-03-14T10:26:14.945Z,1024.55
2017-03-14T10:27:14.883Z,1024.57
2017-03-14T10:28:14.821Z,1024.54
2017-03-14T10:29:14.759Z,1024.54
2017-03-14T10:30:14.697Z,1024.5
2017-03-14T10:31:14.644Z,1024.47
2017-03-14T10:32:14.574Z,1024.53
2017-03-14T10:33:14.520Z,1024.54
2017-03-14T10:34:14.450Z,1024.52
2017-03-14T10:35:14.389Z,1024.56
2017-03-14T10:36:14.328Z,1024.55
2017-03-14T10:37:14.278Z,1024.58
2017-03-14T10:38:14.204Z,1024.56
2017-03-14T10:39:14.143Z,1024.58
2017-03-14T10:40:14.086Z,1024.59
2017-03-14T10:41:14.040Z,1024.55
2017-03-14T10:42:13.958Z,1024.55
2017-03-14T10:43:13.898Z,1024.51
2017-03-14T10:44:13.833Z,1024.47
2017-03-14T10:45:13.773Z,1024.48
2017-03-14T10:46:13.715Z,1024.43
2017-03-14T10:47:13.650Z,1024.47
2017-03-14T10:48:13.588Z,1024.45
2017-03-14T10:49:13.527Z,1024.45
2017-03-14T10:50:13.466Z,1024.4
2017-03-14T10:51:13.404Z,1024.49
2017-03-14T10:52:13.341Z,1024.44
2017-03-14T10:53:13.280Z,1024.43
2017-03-14T10:54:13.220Z,1024.46
2017-03-14T10:55:13.157Z,1024.45
2017-03-14T10:56:13.095Z,1024.42
2017-03-14T10:57:13.035Z,1024.45
2017-03-14T10:58:12.974Z,1024.43
2017-03-14T10:59:12.911Z,1024.38
2017-03-14T11:00:12.851Z,1024.4
2017-03-14T11:01:12.813Z,1024.37
2017-03-14T11:02:12.729Z,1024.34
2017-03-14T11:03:12.665Z,1024.33
2017-03-14T11:04:12.613Z,1024.33
2017-03-14T11:05:12.542Z,1024.33
2017-03-14T11:06:12.480Z,1024.27
2017-03-14T11:07:12.419Z,1024.3
2017-03-14T11:08:12.358Z,1024.24
2017-03-14T11:09:12.300Z,1024.25
2017-03-14T11:10:12.234Z,1024.24
2017-03-14T11:11:12.174Z,1024.25
2017-03-14T11:12:12.112Z,1024.23
2017-03-14T11:13:12.050Z,1024.25
2017-03-14T11:14:11.988Z,1024.2
2017-03-14T11:15:11.926Z,1024.12
2017-03-14T11:16:11.865Z,1024.1
2017-03-14T11:17:11.804Z,1024.04
2017-03-14T11:18:11.742Z,1024.04
2017-03-14T11:19:11.681Z,1024.04
2017-03-14T11:20:11.619Z,1024
2017-03-14T11:21:11.557Z,1023.99
2017-03-14T11:22:11.495Z,1023.96
2017-03-14T11:23:11.435Z,1023.95
2017-03-14T11:24:11.373Z,1023.96
2017-03-14T11:25:11.339Z,1023.98
2017-03-14T11:26:11.249Z,1023.96
2017-03-14T11:27:11.188Z,1023.99
2017-03-14T11:28:11.125Z,1023.98
2017-03-14T11:29:11.063Z,1023.98
2017-03-14T11:30:11.002Z,1023.97
2017-03-14T11:31:10.941Z,1023.99
2017-03-14T11:32:10.879Z,1023.95
2017-03-14T11:33:10.817Z,1024.01
2017-03-14T11:34:10.754Z,1023.98
2017-03-14T11:35:10.694Z,1023.97
2017-03-14T11:36:10.632Z,1023.94
2017-03-14T11:37:10.570Z,1023.92
2017-03-14T11:38:10.509Z,1023.93
2017-03-14T11:39:10.446Z,1023.9
2017-03-14T11:40:10.385Z,1023.98
2017-03-14T11:41:10.324Z,1024.01
2017-03-14T11:42:10.263Z,1024.01
2017-03-14T11:43:10.200Z,1024.04
2017-03-14T11:44:10.138Z,1024.05
2017-03-14T11:45:10.228Z,1024.02
2017-03-14T11:46:10.016Z,1024.07
2017-03-14T11:47:09.954Z,1024.03
2017-03-14T11:48:09.895Z,1024.04
2017-03-14T11:49:09.831Z,1024.06
2017-03-14T11:50:10.019Z,1024.08
2017-03-14T11:51:09.707Z,1024.06
2017-03-14T11:52:09.646Z,1024.11
2017-03-14T11:53:09.584Z,1024.08
2017-03-14T11:54:09.522Z,1024.07
2017-03-14T11:55:09.460Z,1024.05
2017-03-14T11:56:09.399Z,1024.02
2017-03-14T11:57:09.336Z,1024.01
2017-03-14T11:58:09.275Z,1023.99
2017-03-14T11:59:09.213Z,1023.96
2017-03-14T12:00:09.152Z,1023.94
2017-03-14T12:01:09.089Z,1023.94
2017-03-14T12:02:09.030Z,1023.94
2017-03-14T12:03:08.967Z,1023.94
2017-03-14T12:04:08.904Z,1023.92
2017-03-14T12:05:08.843Z,1023.92
2017-03-14T12:06:08.781Z,1023.87
2017-03-14T12:07:08.720Z,1023.82
2017-03-14T12:08:08.657Z,1023.81
2017-03-14T12:09:08.596Z,1023.76
2017-03-14T12:10:08.535Z,1023.77